Eems Trader — V2DE3 — position and weather

sailwx.info

Track history (hours):
 
Tides and Currents Weather Stations Pressure Air Temp Water Temp Dewpoint Dewpoint Depression Visibility Wind Speed Wind Dir Waves Ship Positions

Eems Trader

Last reported at 2016-Sep-29 00:33 UTC. Time now 2016-Sep-29 05:07 UTC.
Position N 54°34' E 010°34'.

Length 89 m; draft 4.2 m.

Type: Cargo ship. MMSI: 305182000.

Date/timePositionNaut miles runAvg speedWind from/ knotsBaromVisibWave heightAir tempDewpointWater temp
2016-Sep-29 00:33N 54°34' E 010°34'21 7.0
2016-Sep-28 21:33N 54°36' E 011°10'13 6.6
2016-Sep-28 19:33N 54°31' E 011°30'20 6.6
2016-Sep-28 16:33N 54°27' E 012°03'7 6.5
2016-Sep-28 15:33N 54°31' E 012°12'72 5.6
2016-Sep-28 02:33N 54°13' E 014°12'8 8.6
2016-Sep-28 01:33N 54°05' E 014°15'17 8.4
2016-Sep-27 23:33N 53°48' E 014°21'26 6.3
2016-Sep-27 19:31N 53°24' E 014°36'0 0.0
2016-Sep-27 14:31N 53°24' E 014°36'0 0.0
2016-Sep-27 13:31N 53°24' E 014°36'0 0.0
2016-Sep-27 10:31N 53°24' E 014°36'68 2.0
2016-Sep-26 01:04N 54°27' E 013°50'24 6.9
2016-Sep-25 21:32N 54°44' E 013°20'35 8.0
2016-Sep-25 17:09N 54°34' E 012°22'5 7.8
2016-Sep-25 16:32N 54°30' E 012°16'8 7.9
2016-Sep-25 15:33N 54°24' E 012°08'9 8.9
2016-Sep-25 14:33N 54°25' E 011°53'18 9.0
2016-Sep-25 12:34N 54°31' E 011°24'9 8.9
2016-Sep-25 11:33N 54°35' E 011°10'9 8.7
2016-Sep-25 10:33N 54°34' E 010°55'9 8.6
2016-Sep-25 09:33N 54°34' E 010°40'17 8.5
2016-Sep-25 07:33N 54°26' E 010°14'41 5.8
2016-Sep-25 00:33N 54°02' E 009°18'10 4.9
2016-Sep-24 22:33N 53°54' E 009°09'4 4.3
2016-Sep-24 21:33N 53°52' E 009°02'14 6.8
2016-Sep-24 19:33N 53°56' E 008°40'8 8.0
2016-Sep-24 18:33N 53°59' E 008°27'8 8.5
2016-Sep-24 17:33N 53°59' E 008°13'9 9.3
2016-Sep-24 16:33N 53°57' E 007°57'20 9.8
2016-Sep-24 14:33N 53°53' E 007°25'2010.2
2016-Sep-24 12:33N 53°48' E 006°51'19 9.6
2016-Sep-24 10:33N 53°43' E 006°20'9 8.9
2016-Sep-24 09:33N 53°41' E 006°05'156 5.8
2016-Sep-23 06:30N 51°42' E 003°17'16 8.4
2016-Sep-23 04:33N 51°28' E 003°31'6 5.6
2016-Sep-23 03:33N 51°26' E 003°39'7 7.2
2016-Sep-23 02:33N 51°23' E 003°49'6 6.2
2016-Sep-23 01:33N 51°27' E 003°56'8 8.1
2016-Sep-23 00:31N 51°22' E 004°08'7 7.4
2016-Sep-22 23:34N 51°18' E 004°17'8 2.7
2016-Sep-22 20:31N 51°10' E 004°20'0 0.0
2016-Sep-22 12:28N 51°10' E 004°20'0 0.0
2016-Sep-22 04:31N 51°10' E 004°20'0 0.1
2016-Sep-22 03:33N 51°10' E 004°20'16 5.4
2016-Sep-22 00:33N 51°23' E 004°03'4 4.0
2016-Sep-21 23:33N 51°24' E 003°57'6 6.0
2016-Sep-21 22:33N 51°21' E 003°49'17 5.6
2016-Sep-21 19:33N 51°24' E 003°23'25 8.3
2016-Sep-21 16:33N 51°22' E 002°43'6 0.9
2016-Sep-21 09:33N 51°20' E 002°34'0 0.0
2016-Sep-21 08:33N 51°20' E 002°34'0 0.0
2016-Sep-21 05:31N 51°20' E 002°34'0 0.0
2016-Sep-21 03:33N 51°20' E 002°34'0 0.0
2016-Sep-21 02:33N 51°20' E 002°34'0 0.0
2016-Sep-20 17:33N 51°20' E 002°34'0 0.0
2016-Sep-20 14:33N 51°20' E 002°34'0 0.0
2016-Sep-20 13:33N 51°20' E 002°34'0 0.1
2016-Sep-20 10:33N 51°20' E 002°34'0 0.0
2016-Sep-20 08:33N 51°20' E 002°34'3 2.7
2016-Sep-20 07:33N 51°22' E 002°30'4 4.5
2016-Sep-20 06:33N 51°20' E 002°23'24 6.1
2016-Sep-20 02:34N 51°08' E 001°50'79 7.9
2016-Sep-19 16:33N 50°20' E 000°10'14 6.8
2016-Sep-19 14:33N 50°16' W 000°11'7 7.3
2016-Sep-19 13:32N 50°14' W 000°22'  
Track history (hours):
 
Tides and Currents Weather Stations Pressure Air Temp Water Temp Dewpoint Dewpoint Depression Visibility Wind Speed Wind Dir Waves Ship Positions

Eems Trader

Last reported at 2016-Sep-29 00:33 UTC. Time now 2016-Sep-29 05:07 UTC.
Position N 54°34' E 010°34'.

Length 89 m; draft 4.2 m.

Type: Cargo ship. MMSI: 305182000.

Date/timePositionNaut miles runAvg speedWind from/ knotsBaromVisibWave heightAir tempDewpointWater temp
2016-Sep-29 00:33N 54°34' E 010°34'21 7.0
2016-Sep-28 21:33N 54°36' E 011°10'13 6.6
2016-Sep-28 19:33N 54°31' E 011°30'20 6.6
2016-Sep-28 16:33N 54°27' E 012°03'7 6.5
2016-Sep-28 15:33N 54°31' E 012°12'72 5.6
2016-Sep-28 02:33N 54°13' E 014°12'8 8.6
2016-Sep-28 01:33N 54°05' E 014°15'17 8.4
2016-Sep-27 23:33N 53°48' E 014°21'26 6.3
2016-Sep-27 19:31N 53°24' E 014°36'0 0.0
2016-Sep-27 14:31N 53°24' E 014°36'0 0.0
2016-Sep-27 13:31N 53°24' E 014°36'0 0.0
2016-Sep-27 10:31N 53°24' E 014°36'68 2.0
2016-Sep-26 01:04N 54°27' E 013°50'24 6.9
2016-Sep-25 21:32N 54°44' E 013°20'35 8.0
2016-Sep-25 17:09N 54°34' E 012°22'5 7.8
2016-Sep-25 16:32N 54°30' E 012°16'8 7.9
2016-Sep-25 15:33N 54°24' E 012°08'9 8.9
2016-Sep-25 14:33N 54°25' E 011°53'18 9.0
2016-Sep-25 12:34N 54°31' E 011°24'9 8.9
2016-Sep-25 11:33N 54°35' E 011°10'9 8.7
2016-Sep-25 10:33N 54°34' E 010°55'9 8.6
2016-Sep-25 09:33N 54°34' E 010°40'17 8.5
2016-Sep-25 07:33N 54°26' E 010°14'41 5.8
2016-Sep-25 00:33N 54°02' E 009°18'10 4.9
2016-Sep-24 22:33N 53°54' E 009°09'4 4.3
2016-Sep-24 21:33N 53°52' E 009°02'14 6.8
2016-Sep-24 19:33N 53°56' E 008°40'8 8.0
2016-Sep-24 18:33N 53°59' E 008°27'8 8.5
2016-Sep-24 17:33N 53°59' E 008°13'9 9.3
2016-Sep-24 16:33N 53°57' E 007°57'20 9.8
2016-Sep-24 14:33N 53°53' E 007°25'2010.2
2016-Sep-24 12:33N 53°48' E 006°51'19 9.6
2016-Sep-24 10:33N 53°43' E 006°20'9 8.9
2016-Sep-24 09:33N 53°41' E 006°05'156 5.8
2016-Sep-23 06:30N 51°42' E 003°17'16 8.4
2016-Sep-23 04:33N 51°28' E 003°31'6 5.6
2016-Sep-23 03:33N 51°26' E 003°39'7 7.2
2016-Sep-23 02:33N 51°23' E 003°49'6 6.2
2016-Sep-23 01:33N 51°27' E 003°56'8 8.1
2016-Sep-23 00:31N 51°22' E 004°08'7 7.4
2016-Sep-22 23:34N 51°18' E 004°17'8 2.7
2016-Sep-22 20:31N 51°10' E 004°20'0 0.0
2016-Sep-22 12:28N 51°10' E 004°20'0 0.0
2016-Sep-22 04:31N 51°10' E 004°20'0 0.1
2016-Sep-22 03:33N 51°10' E 004°20'16 5.4
2016-Sep-22 00:33N 51°23' E 004°03'4 4.0
2016-Sep-21 23:33N 51°24' E 003°57'6 6.0
2016-Sep-21 22:33N 51°21' E 003°49'17 5.6
2016-Sep-21 19:33N 51°24' E 003°23'25 8.3
2016-Sep-21 16:33N 51°22' E 002°43'6 0.9
2016-Sep-21 09:33N 51°20' E 002°34'0 0.0
2016-Sep-21 08:33N 51°20' E 002°34'0 0.0
2016-Sep-21 05:31N 51°20' E 002°34'0 0.0
2016-Sep-21 03:33N 51°20' E 002°34'0 0.0
2016-Sep-21 02:33N 51°20' E 002°34'0 0.0
2016-Sep-20 17:33N 51°20' E 002°34'0 0.0
2016-Sep-20 14:33N 51°20' E 002°34'0 0.0
2016-Sep-20 13:33N 51°20' E 002°34'0 0.1
2016-Sep-20 10:33N 51°20' E 002°34'0 0.0
2016-Sep-20 08:33N 51°20' E 002°34'3 2.7
2016-Sep-20 07:33N 51°22' E 002°30'4 4.5
2016-Sep-20 06:33N 51°20' E 002°23'24 6.1
2016-Sep-20 02:34N 51°08' E 001°50'79 7.9
2016-Sep-19 16:33N 50°20' E 000°10'14 6.8
2016-Sep-19 14:33N 50°16' W 000°11'7 7.3
2016-Sep-19 13:32N 50°14' W 000°22'  

Dump ship's entire track history